Leni P. — A8XW5 — position and weather

sailwx.info

Track history (hours):
 
Tides and Currents Weather Stations Pressure Air Temp Water Temp Dewpoint Dewpoint Depression Visibility Wind Speed Wind Dir Waves Ship Positions

Leni P.

Last reported at 2017-Mar-28 21:33 UTC. Time now 2017-Mar-28 21:47 UTC.
Position N 01°15' E 103°54'.

Length 274 m; draft 8.9 m.

Type: Tanker. MMSI: 636014986.

Date/timePositionNaut miles runAvg speedWind from/ knotsBaromVisibWave heightAir tempDewpointWater temp
2017-Mar-28 21:33N 01°15' E 103°54'0 0.0
2017-Mar-28 20:33N 01°15' E 103°54'0 0.0
2017-Mar-28 19:33N 01°15' E 103°54'0 0.0
2017-Mar-28 18:27N 01°15' E 103°54'0 0.1
2017-Mar-28 17:33N 01°15' E 103°54'0 0.1
2017-Mar-28 16:33N 01°15' E 103°54'0 0.0
2017-Mar-28 15:27N 01°15' E 103°54'1 1.2
2017-Mar-28 14:33N 01°14' E 103°54'5 5.2
2017-Mar-28 13:33N 01°15' E 103°59'1 1.3
2017-Mar-28 12:33N 01°14' E 103°59'1312.6
2017-Mar-28 11:33N 01°09' E 103°47'1212.3
2017-Mar-28 10:33N 01°05' E 103°36'1111.0
2017-Mar-28 09:33N 01°15' E 103°32'6 0.4
2017-Mar-27 16:15N 01°21' E 103°33'0 0.0
2017-Mar-26 18:33N 01°21' E 103°33'0 0.0
2017-Mar-25 01:22N 01°21' E 103°33'2 2.8
2017-Mar-25 00:33N 01°19' E 103°33'5 5.4
2017-Mar-24 23:33N 01°15' E 103°30'4 2.9
2017-Mar-24 22:15N 01°15' E 103°27'0 0.0
2017-Mar-24 20:30N 01°15' E 103°27'0 0.0
2017-Mar-24 19:33N 01°15' E 103°27'0 0.0
2017-Mar-24 18:21N 01°15' E 103°27'0 0.1
2017-Mar-24 14:24N 01°15' E 103°27'0 0.0
2017-Mar-24 13:21N 01°15' E 103°27'0 0.1
2017-Mar-24 12:33N 01°15' E 103°27'0 0.1
2017-Mar-24 11:30N 01°15' E 103°27'0 0.1
2017-Mar-24 10:15N 01°15' E 103°27'0 0.1
2017-Mar-24 09:27N 01°15' E 103°27'0 0.0
2017-Mar-24 07:27N 01°15' E 103°27'0 0.0
2017-Mar-24 06:24N 01°15' E 103°27'0 0.0
2017-Mar-24 05:33N 01°15' E 103°27'0 0.0
2017-Mar-24 01:15N 01°15' E 103°27'0 0.2
2017-Mar-24 00:10N 01°15' E 103°27'0 0.0
2017-Mar-23 23:33N 01°15' E 103°27'0 0.0
2017-Mar-23 22:33N 01°15' E 103°27'0 0.0
2017-Mar-23 21:32N 01°15' E 103°27'0 0.0
2017-Mar-23 20:33N 01°15' E 103°27'0 0.0
2017-Mar-23 19:34N 01°15' E 103°27'0 0.0
2017-Mar-23 18:34N 01°15' E 103°27'0 0.1
2017-Mar-23 17:33N 01°15' E 103°27'0 0.0
2017-Mar-23 16:33N 01°15' E 103°27'0 0.0
2017-Mar-23 15:33N 01°15' E 103°27'0 0.0
2017-Mar-23 14:34N 01°15' E 103°27'0 0.1
2017-Mar-23 13:28N 01°15' E 103°27'0 0.0
2017-Mar-23 12:33N 01°15' E 103°27'0 0.1
2017-Mar-23 11:33N 01°15' E 103°27'0 0.1
2017-Mar-23 10:33N 01°15' E 103°27'0 0.1
2017-Mar-23 09:33N 01°15' E 103°27'0 0.0
2017-Mar-23 08:33N 01°15' E 103°27'0 0.1
2017-Mar-23 07:33N 01°15' E 103°27'0 0.0
2017-Mar-23 06:31N 01°15' E 103°27'0 0.1
2017-Mar-23 05:32N 01°15' E 103°27'0 0.0
2017-Mar-23 04:33N 01°15' E 103°27'0 0.1
2017-Mar-23 03:33N 01°15' E 103°27'0 0.1
2017-Mar-23 02:33N 01°15' E 103°27'0 0.0
2017-Mar-23 01:33N 01°15' E 103°27'0 0.0
2017-Mar-23 00:33N 01°15' E 103°27'0 0.0
2017-Mar-22 23:33N 01°15' E 103°27'0 0.0
2017-Mar-22 22:34N 01°15' E 103°27'0 0.0
2017-Mar-22 21:33N 01°15' E 103°27'0 0.0
2017-Mar-22 20:33N 01°15' E 103°27'0 0.0
2017-Mar-22 19:33N 01°15' E 103°27'0 0.0
2017-Mar-22 18:33N 01°15' E 103°27'0 0.1
2017-Mar-22 17:33N 01°15' E 103°27'0 0.1
2017-Mar-22 16:31N 01°15' E 103°27'0 0.0
2017-Mar-22 15:33N 01°15' E 103°27'0 0.0
2017-Mar-22 14:34N 01°15' E 103°27'0 0.1
2017-Mar-22 13:33N 01°15' E 103°27'0 0.1
2017-Mar-22 11:32N 01°15' E 103°27'0 0.1
2017-Mar-22 10:33N 01°15' E 103°27'0 0.0
2017-Mar-22 09:33N 01°15' E 103°27'0 0.0
2017-Mar-22 08:05N 01°15' E 103°27'0 0.0
2017-Mar-22 07:33N 01°15' E 103°27'0 0.0
2017-Mar-22 06:24N 01°15' E 103°27'0 0.2
2017-Mar-22 05:34N 01°15' E 103°27'2 1.8
2017-Mar-22 04:32N 01°15' E 103°29'2 2.5
2017-Mar-22 03:33N 01°14' E 103°31'6 5.7
2017-Mar-22 02:32N 01°10' E 103°26'4711.6
2017-Mar-21 22:29N 01°38' E 102°48'2311.8
2017-Mar-21 20:33N 01°47' E 102°27'  
Track history (hours):
 
Tides and Currents Weather Stations Pressure Air Temp Water Temp Dewpoint Dewpoint Depression Visibility Wind Speed Wind Dir Waves Ship Positions

Leni P.

Last reported at 2017-Mar-28 21:33 UTC. Time now 2017-Mar-28 21:47 UTC.
Position N 01°15' E 103°54'.

Length 274 m; draft 8.9 m.

Type: Tanker. MMSI: 636014986.

Date/timePositionNaut miles runAvg speedWind from/ knotsBaromVisibWave heightAir tempDewpointWater temp
2017-Mar-28 21:33N 01°15' E 103°54'0 0.0
2017-Mar-28 20:33N 01°15' E 103°54'0 0.0
2017-Mar-28 19:33N 01°15' E 103°54'0 0.0
2017-Mar-28 18:27N 01°15' E 103°54'0 0.1
2017-Mar-28 17:33N 01°15' E 103°54'0 0.1
2017-Mar-28 16:33N 01°15' E 103°54'0 0.0
2017-Mar-28 15:27N 01°15' E 103°54'1 1.2
2017-Mar-28 14:33N 01°14' E 103°54'5 5.2
2017-Mar-28 13:33N 01°15' E 103°59'1 1.3
2017-Mar-28 12:33N 01°14' E 103°59'1312.6
2017-Mar-28 11:33N 01°09' E 103°47'1212.3
2017-Mar-28 10:33N 01°05' E 103°36'1111.0
2017-Mar-28 09:33N 01°15' E 103°32'6 0.4
2017-Mar-27 16:15N 01°21' E 103°33'0 0.0
2017-Mar-26 18:33N 01°21' E 103°33'0 0.0
2017-Mar-25 01:22N 01°21' E 103°33'2 2.8
2017-Mar-25 00:33N 01°19' E 103°33'5 5.4
2017-Mar-24 23:33N 01°15' E 103°30'4 2.9
2017-Mar-24 22:15N 01°15' E 103°27'0 0.0
2017-Mar-24 20:30N 01°15' E 103°27'0 0.0
2017-Mar-24 19:33N 01°15' E 103°27'0 0.0
2017-Mar-24 18:21N 01°15' E 103°27'0 0.1
2017-Mar-24 14:24N 01°15' E 103°27'0 0.0
2017-Mar-24 13:21N 01°15' E 103°27'0 0.1
2017-Mar-24 12:33N 01°15' E 103°27'0 0.1
2017-Mar-24 11:30N 01°15' E 103°27'0 0.1
2017-Mar-24 10:15N 01°15' E 103°27'0 0.1
2017-Mar-24 09:27N 01°15' E 103°27'0 0.0
2017-Mar-24 07:27N 01°15' E 103°27'0 0.0
2017-Mar-24 06:24N 01°15' E 103°27'0 0.0
2017-Mar-24 05:33N 01°15' E 103°27'0 0.0
2017-Mar-24 01:15N 01°15' E 103°27'0 0.2
2017-Mar-24 00:10N 01°15' E 103°27'0 0.0
2017-Mar-23 23:33N 01°15' E 103°27'0 0.0
2017-Mar-23 22:33N 01°15' E 103°27'0 0.0
2017-Mar-23 21:32N 01°15' E 103°27'0 0.0
2017-Mar-23 20:33N 01°15' E 103°27'0 0.0
2017-Mar-23 19:34N 01°15' E 103°27'0 0.0
2017-Mar-23 18:34N 01°15' E 103°27'0 0.1
2017-Mar-23 17:33N 01°15' E 103°27'0 0.0
2017-Mar-23 16:33N 01°15' E 103°27'0 0.0
2017-Mar-23 15:33N 01°15' E 103°27'0 0.0
2017-Mar-23 14:34N 01°15' E 103°27'0 0.1
2017-Mar-23 13:28N 01°15' E 103°27'0 0.0
2017-Mar-23 12:33N 01°15' E 103°27'0 0.1
2017-Mar-23 11:33N 01°15' E 103°27'0 0.1
2017-Mar-23 10:33N 01°15' E 103°27'0 0.1
2017-Mar-23 09:33N 01°15' E 103°27'0 0.0
2017-Mar-23 08:33N 01°15' E 103°27'0 0.1
2017-Mar-23 07:33N 01°15' E 103°27'0 0.0
2017-Mar-23 06:31N 01°15' E 103°27'0 0.1
2017-Mar-23 05:32N 01°15' E 103°27'0 0.0
2017-Mar-23 04:33N 01°15' E 103°27'0 0.1
2017-Mar-23 03:33N 01°15' E 103°27'0 0.1
2017-Mar-23 02:33N 01°15' E 103°27'0 0.0
2017-Mar-23 01:33N 01°15' E 103°27'0 0.0
2017-Mar-23 00:33N 01°15' E 103°27'0 0.0
2017-Mar-22 23:33N 01°15' E 103°27'0 0.0
2017-Mar-22 22:34N 01°15' E 103°27'0 0.0
2017-Mar-22 21:33N 01°15' E 103°27'0 0.0
2017-Mar-22 20:33N 01°15' E 103°27'0 0.0
2017-Mar-22 19:33N 01°15' E 103°27'0 0.0
2017-Mar-22 18:33N 01°15' E 103°27'0 0.1
2017-Mar-22 17:33N 01°15' E 103°27'0 0.1
2017-Mar-22 16:31N 01°15' E 103°27'0 0.0
2017-Mar-22 15:33N 01°15' E 103°27'0 0.0
2017-Mar-22 14:34N 01°15' E 103°27'0 0.1
2017-Mar-22 13:33N 01°15' E 103°27'0 0.1
2017-Mar-22 11:32N 01°15' E 103°27'0 0.1
2017-Mar-22 10:33N 01°15' E 103°27'0 0.0
2017-Mar-22 09:33N 01°15' E 103°27'0 0.0
2017-Mar-22 08:05N 01°15' E 103°27'0 0.0
2017-Mar-22 07:33N 01°15' E 103°27'0 0.0
2017-Mar-22 06:24N 01°15' E 103°27'0 0.2
2017-Mar-22 05:34N 01°15' E 103°27'2 1.8
2017-Mar-22 04:32N 01°15' E 103°29'2 2.5
2017-Mar-22 03:33N 01°14' E 103°31'6 5.7
2017-Mar-22 02:32N 01°10' E 103°26'4711.6
2017-Mar-21 22:29N 01°38' E 102°48'2311.8
2017-Mar-21 20:33N 01°47' E 102°27'  

Dump ship's entire track history